Time;durP1;ratioP1;P1;durP2;ratioP2;P2;SDS_P1;SDS_P2;PMS_P1;PMS_P2;Temp;Humidity;BMP_temperature;BMP_pressure;BME280_temperature;BME280_humidity;BME280_pressure;Samples;Min_cycle;Max_cycle;Signal;HPM_P1;HPM_P2
2023/09/02 00:01:29;;;;;;;6.13;3.42;;;;;;;18.36;68.52;99751.34;4976519;28;20042;-92
2023/09/02 00:03:55;;;;;;;10.82;3.38;;;;;;;18.26;67.67;99741.50;4976135;28;20023;-92
2023/09/02 00:06:20;;;;;;;4.50;3.05;;;;;;;18.21;68.17;99743.56;4959996;28;20437;-93
2023/09/02 00:08:45;;;;;;;5.25;2.90;;;;;;;18.19;67.95;99746.56;4961188;28;20037;-92
2023/09/02 00:11:11;;;;;;;8.88;4.30;;;;;;;18.11;68.10;99745.41;4978479;28;20034;-95
2023/09/02 00:13:38;;;;;;;6.00;3.25;;;;;;;18.26;68.06;99757.03;4964053;28;20050;-95
2023/09/02 00:16:04;;;;;;;3.95;2.80;;;;;;;18.30;67.92;99753.41;4962638;28;20448;-96
2023/09/02 00:18:29;;;;;;;4.20;2.88;;;;;;;18.34;67.15;99743.50;4963710;28;20034;-96
2023/09/02 00:20:55;;;;;;;3.17;2.67;;;;;;;18.41;66.45;99732.13;4963415;28;20066;-96
2023/09/02 00:23:20;;;;;;;4.35;2.55;;;;;;;18.56;65.75;99742.63;4963886;28;20078;-96
2023/09/02 00:25:46;;;;;;;5.05;2.80;;;;;;;18.44;66.08;99733.44;4964913;28;20041;-96
2023/09/02 00:28:11;;;;;;;4.90;2.58;;;;;;;18.60;65.89;99755.66;4964328;28;20034;-96
2023/09/02 00:30:37;;;;;;;4.38;2.90;;;;;;;18.47;65.54;99733.63;4963551;28;20034;-96
2023/09/02 00:33:03;;;;;;;3.17;2.50;;;;;;;18.52;65.23;99738.13;4964503;28;20030;-96
2023/09/02 00:35:29;;;;;;;7.97;2.90;;;;;;;18.35;67.19;99739.63;4963549;28;20039;-95
2023/09/02 00:37:54;;;;;;;5.63;3.03;;;;;;;18.14;68.40;99741.25;4964231;28;20197;-95
2023/09/02 00:40:20;;;;;;;5.93;2.83;;;;;;;17.99;69.04;99775.09;4979352;28;20035;-95
2023/09/02 00:42:46;;;;;;;3.47;2.70;;;;;;;17.67;69.58;99755.09;4978755;28;20386;-96
2023/09/02 00:45:11;;;;;;;5.30;3.20;;;;;;;17.51;69.75;99743.72;4979125;28;20074;-96
2023/09/02 00:47:37;;;;;;;7.05;3.00;;;;;;;17.38;70.15;99745.38;4979277;28;20046;-96
2023/09/02 00:50:03;;;;;;;5.35;3.10;;;;;;;17.38;70.64;99756.25;4979283;28;20045;-96
2023/09/02 00:52:34;;;;;;;4.47;3.10;;;;;;;17.41;70.55;99759.47;4980134;28;20502;-96
2023/09/02 00:55:01;;;;;;;4.07;3.03;;;;;;;17.35;70.35;99753.34;4965081;28;20050;-96
2023/09/02 00:57:26;;;;;;;6.28;3.20;;;;;;;17.51;70.04;99767.44;4980528;28;20026;-95
2023/09/02 00:59:52;;;;;;;5.80;3.10;;;;;;;17.62;69.54;99754.41;4963429;28;20026;-96
2023/09/02 01:02:18;;;;;;;5.72;3.10;;;;;;;17.83;68.71;99766.50;4963774;28;20030;-96
2023/09/02 01:04:44;;;;;;;5.93;3.03;;;;;;;17.72;69.21;99760.44;4979961;28;20508;-95
2023/09/02 01:07:13;;;;;;;7.25;3.90;;;;;;;17.56;70.51;99759.16;4962618;28;20039;-95
2023/09/02 01:09:38;;;;;;;4.45;3.67;;;;;;;17.49;71.45;99765.03;4962444;28;20043;-96
2023/09/02 01:12:05;;;;;;;10.45;3.90;;;;;;;17.44;71.33;99764.34;4961762;28;20031;-96
2023/09/02 01:14:30;;;;;;;4.05;3.30;;;;;;;17.38;71.70;99756.25;4961630;28;20030;-96
2023/09/02 01:16:56;;;;;;;4.72;3.10;;;;;;;17.42;71.20;99761.09;4962680;28;20035;-96
2023/09/02 01:19:22;;;;;;;9.13;3.42;;;;;;;17.40;71.33;99750.50;4962577;28;20031;-96
2023/09/02 01:22:08;;;;;;;4.78;3.40;;;;;;;17.55;71.34;99774.69;4979942;28;20097;-96
2023/09/02 01:25:05;;;;;;;10.20;3.60;;;;;;;17.32;71.68;99748.50;4979277;28;20188;-95
2023/09/02 01:28:05;;;;;;;6.38;3.28;;;;;;;17.24;72.30;99744.56;4961890;28;20039;-95
2023/09/02 01:30:33;;;;;;;6.68;3.20;;;;;;;17.20;71.82;99743.56;4940360;29;20040;-96
2023/09/02 01:32:58;;;;;;;4.47;3.03;;;;;;;17.21;72.02;99761.53;4893160;29;20032;-96
2023/09/02 01:35:27;;;;;;;7.85;3.60;;;;;;;17.15;72.11;99758.09;4908380;29;20175;-96
2023/09/02 01:37:57;;;;;;;6.40;3.42;;;;;;;17.15;72.13;99744.47;4892796;29;20031;-96
2023/09/02 01:40:26;;;;;;;4.07;3.10;;;;;;;17.07;71.95;99737.03;4893552;29;20044;-96
2023/09/02 01:42:53;;;;;;;5.35;3.28;;;;;;;17.02;72.79;99749.94;4891994;29;20091;-96
2023/09/02 01:45:19;;;;;;;6.50;4.03;;;;;;;16.90;73.17;99745.78;4908426;29;20075;-96
2023/09/02 01:47:47;;;;;;;6.22;4.25;;;;;;;16.85;73.23;99745.91;4892528;29;20035;-95
2023/09/02 01:50:17;;;;;;;8.23;3.97;;;;;;;16.96;72.68;99747.31;4891252;29;20051;-96
2023/09/02 01:52:43;;;;;;;9.38;3.97;;;;;;;16.94;73.04;99746.81;4907871;29;20812;-95
2023/09/02 01:55:08;;;;;;;5.00;3.50;;;;;;;16.99;72.68;99751.34;4892320;29;20040;-96
2023/09/02 01:57:34;;;;;;;6.13;3.65;;;;;;;16.87;72.68;99721.09;4893379;29;20482;-96
2023/09/02 01:59:59;;;;;;;6.70;3.80;;;;;;;16.88;73.12;99734.41;4907006;29;20031;-96
2023/09/02 02:02:25;;;;;;;5.57;4.03;;;;;;;16.74;73.62;99739.00;4940536;28;20035;-96
2023/09/02 02:04:55;;;;;;;6.03;3.75;;;;;;;16.76;74.22;99753.91;4962546;28;20085;-96
2023/09/02 02:07:21;;;;;;;5.10;3.42;;;;;;;16.68;74.06;99735.56;4961659;28;20053;-96
2023/09/02 02:09:48;;;;;;;5.00;3.67;;;;;;;16.82;74.33;99765.53;4961210;28;20565;-96
2023/09/02 02:12:14;;;;;;;5.47;4.22;;;;;;;16.64;74.62;99737.25;4977676;28;20125;-96
2023/09/02 02:14:39;;;;;;;7.38;3.83;;;;;;;16.81;74.35;99763.09;4960886;28;20571;-95
2023/09/02 02:17:06;;;;;;;12.20;4.85;;;;;;;16.83;73.69;99748.13;4961851;28;20026;-96
2023/09/02 02:19:31;;;;;;;9.18;5.22;;;;;;;16.78;73.99;99734.56;4977366;28;20037;-96
2023/09/02 02:21:58;;;;;;;17.70;10.57;;;;;;;17.05;73.22;99747.41;4960946;28;20035;-94
2023/09/02 02:24:24;;;;;;;12.88;8.55;;;;;;;17.23;72.64;99759.31;4961305;28;20057;-95
2023/09/02 02:26:49;;;;;;;19.83;9.10;;;;;;;17.27;71.98;99756.78;4962572;28;20031;-96
2023/09/02 02:29:15;;;;;;;11.63;9.50;;;;;;;17.13;72.50;99741.25;4961903;28;20127;-95
2023/09/02 02:31:45;;;;;;;13.13;9.57;;;;;;;17.20;72.37;99751.72;4962810;28;20031;-95
2023/09/02 02:34:10;;;;;;;18.02;10.27;;;;;;;17.20;72.76;99748.22;4961101;28;20026;-96
2023/09/02 02:36:36;;;;;;;16.52;10.52;;;;;;;17.18;72.46;99751.22;4976682;28;20480;-95
2023/09/02 02:39:06;;;;;;;14.25;9.68;;;;;;;17.22;71.91;99746.00;4961272;28;20097;-96
2023/09/02 02:41:31;;;;;;;16.25;10.80;;;;;;;17.08;73.09;99749.53;4960695;28;20046;-96
2023/09/02 02:43:58;;;;;;;15.55;12.55;;;;;;;17.03;73.99;99767.88;4961385;28;20058;-95
2023/09/02 02:46:24;;;;;;;9.85;6.45;;;;;;;16.79;73.74;99755.22;4961393;28;20047;-95
2023/09/02 02:48:50;;;;;;;13.75;9.20;;;;;;;16.71;74.15;99762.16;4962383;28;20042;-96
2023/09/02 02:51:15;;;;;;;11.93;9.07;;;;;;;16.68;74.01;99748.34;4962678;28;20046;-96
2023/09/02 02:53:41;;;;;;;12.73;9.57;;;;;;;16.78;73.78;99761.75;4962545;28;20086;-96
2023/09/02 02:56:07;;;;;;;10.80;6.53;;;;;;;16.73;73.79;99765.38;4964089;28;20050;-96
2023/09/02 02:58:32;;;;;;;8.52;6.00;;;;;;;16.73;73.57;99756.44;4962284;28;20035;-96
2023/09/02 03:01:05;;;;;;;9.15;5.82;;;;;;;16.63;73.81;99757.41;4961403;28;20476;-96
2023/09/02 03:03:31;;;;;;;8.38;4.72;;;;;;;16.60;73.92;99757.19;4961881;28;20110;-96
2023/09/02 03:05:59;;;;;;;11.93;5.20;;;;;;;16.50;73.99;99763.63;4977080;28;20037;-96
2023/09/02 03:08:24;;;;;;;6.75;4.40;;;;;;;16.47;74.08;99756.06;4977280;28;20065;-96
2023/09/02 03:11:00;;;;;;;8.20;4.82;;;;;;;16.51;74.39;99773.41;4976931;28;20485;-96
2023/09/02 03:13:27;;;;;;;8.10;4.40;;;;;;;16.47;74.34;99762.31;4976952;28;20147;-96
2023/09/02 03:15:56;;;;;;;5.57;3.97;;;;;;;16.49;73.75;99759.28;4960824;28;20026;-95
2023/09/02 03:18:21;;;;;;;9.32;4.35;;;;;;;16.42;74.30;99761.59;4961416;28;20031;-96
2023/09/02 03:20:47;;;;;;;6.38;4.22;;;;;;;16.40;74.59;99767.31;4961549;28;20050;-95
2023/09/02 03:23:13;;;;;;;4.90;3.75;;;;;;;16.30;74.61;99767.50;4961528;28;20527;-96
2023/09/02 03:25:38;;;;;;;6.50;4.28;;;;;;;16.25;74.75;99773.00;4963088;28;20031;-96
2023/09/02 03:28:04;;;;;;;7.50;3.92;;;;;;;16.30;75.13;99789.22;4962009;28;20130;-96
2023/09/02 03:30:30;;;;;;;4.35;3.30;;;;;;;16.15;75.00;99760.41;4961474;28;20034;-95
2023/09/02 03:32:58;;;;;;;4.97;3.83;;;;;;;16.17;75.05;99772.56;4961306;28;20114;-95
2023/09/02 03:35:24;;;;;;;6.30;4.07;;;;;;;16.26;74.91;99777.34;4963821;28;20039;-96
2023/09/02 03:37:50;;;;;;;5.70;3.90;;;;;;;16.30;74.37;99773.72;4980787;28;20057;-96
2023/09/02 03:40:15;;;;;;;6.07;3.95;;;;;;;16.38;74.68;99785.03;4964230;28;20053;-96
2023/09/02 03:42:41;;;;;;;6.97;4.00;;;;;;;16.43;74.02;99769.44;4967319;28;20481;-96
2023/09/02 03:45:13;;;;;;;5.10;4.05;;;;;;;16.39;74.01;99771.13;4966738;28;20034;-96
2023/09/02 03:47:38;;;;;;;;;;;;;;;16.70;73.32;99792.38;4983671;28;20086;-96
2023/09/02 03:50:05;;;;;;;5.80;3.25;;;;;;;16.72;73.52;99796.41;4983613;28;19894;-96
2023/09/02 03:52:31;;;;;;;6.43;3.83;;;;;;;16.60;73.26;99782.50;4966535;28;20042;-96
2023/09/02 03:54:58;;;;;;;4.93;3.80;;;;;;;16.77;72.82;99790.09;4968530;28;20050;-96
2023/09/02 03:57:26;;;;;;;10.50;4.03;;;;;;;16.97;70.95;99788.91;4983244;28;20042;-96
2023/09/02 03:59:54;;;;;;;4.75;3.58;;;;;;;16.99;70.32;99777.75;4967977;28;20041;-96
2023/09/02 04:02:20;;;;;;;6.78;3.67;;;;;;;17.15;69.76;99779.06;4966768;28;20042;-96
2023/09/02 04:04:48;;;;;;;5.00;3.50;;;;;;;17.29;69.20;99803.56;4967357;28;20035;-96
2023/09/02 04:07:15;;;;;;;7.55;3.40;;;;;;;17.36;69.33;99814.84;4965870;28;20126;-96
2023/09/02 04:09:46;;;;;;;5.40;3.10;;;;;;;17.34;68.58;99798.00;4966318;28;20039;-96
2023/09/02 04:12:14;;;;;;;4.53;3.05;;;;;;;17.43;68.29;99812.53;4965774;28;20030;-96
2023/09/02 04:14:39;;;;;;;4.80;3.03;;;;;;;17.42;68.12;99801.94;4984476;28;20039;-96
2023/09/02 04:20:27;;;;;;;6.47;3.50;;;;;;;17.38;69.13;99823.50;4992756;28;20109;-96
2023/09/02 04:22:53;;;;;;;7.78;3.40;;;;;;;17.31;69.65;99818.47;4974613;28;20031;-96
2023/09/02 04:25:19;;;;;;;10.35;3.60;;;;;;;17.16;70.09;99805.16;4990214;28;20034;-96
2023/09/02 04:27:45;;;;;;;6.18;3.22;;;;;;;17.26;69.54;99815.03;4973983;28;20030;-96
2023/09/02 04:30:16;;;;;;;5.93;4.50;;;;;;;17.22;70.44;99808.59;4993533;28;20080;-95
2023/09/02 04:32:41;;;;;;;5.45;3.25;;;;;;;17.19;70.33;99820.09;4991479;28;20046;-96
2023/09/02 04:35:11;;;;;;;9.75;4.25;;;;;;;17.09;70.02;99805.56;4975675;28;20042;-96
2023/09/02 04:37:37;;;;;;;6.00;3.40;;;;;;;17.28;69.17;99821.78;4975832;28;20098;-96
2023/09/02 04:40:14;;;;;;;8.82;3.45;;;;;;;17.42;68.54;99815.56;4974380;28;20102;-95
2023/09/02 04:42:41;;;;;;;4.90;4.07;;;;;;;17.40;68.22;99809.59;4989637;28;20035;-96
2023/09/02 04:45:11;;;;;;;7.35;3.17;;;;;;;17.43;68.18;99808.97;4989922;28;20030;-96
2023/09/02 04:47:39;;;;;;;5.30;3.72;;;;;;;17.61;67.26;99818.16;4973815;28;20038;-96
2023/09/02 04:50:13;;;;;;;6.30;3.25;;;;;;;17.67;67.49;99825.09;4990722;28;20146;-96
2023/09/02 04:52:39;;;;;;;5.93;3.50;;;;;;;17.44;68.40;99813.34;4975196;28;20133;-96
2023/09/02 04:55:05;;;;;;;6.97;3.60;;;;;;;17.45;68.58;99828.53;4974485;28;20054;-96
2023/09/02 04:57:34;;;;;;;12.20;3.65;;;;;;;17.53;68.71;99825.13;4974115;28;20034;-94
2023/09/02 05:00:03;;;;;;;7.05;4.13;;;;;;;17.49;67.87;99808.59;4973940;28;20034;-96
2023/09/02 05:02:36;;;;;;;6.90;3.50;;;;;;;17.58;67.65;99823.09;4974451;28;20034;-96
2023/09/02 05:05:07;;;;;;;5.75;3.30;;;;;;;17.65;66.87;99800.91;4973302;28;20133;-96
2023/09/02 05:07:51;;;;;;;14.97;4.60;;;;;;;17.90;66.56;99824.09;4971372;28;20133;-96
2023/09/02 05:10:42;;;;;;;8.55;3.47;;;;;;;17.98;65.32;99798.03;4978623;28;20353;-96
2023/09/02 05:13:10;;;;;;;8.63;3.90;;;;;;;18.14;65.14;99796.56;4995650;28;20045;-96
2023/09/02 05:15:49;;;;;;;6.88;4.20;;;;;;;18.17;65.57;99800.59;4979239;28;20058;-96
2023/09/02 05:18:17;;;;;;;5.20;3.42;;;;;;;18.16;65.93;99804.44;4977123;28;20030;-96
2023/09/02 05:20:55;;;;;;;9.00;3.85;;;;;;;18.11;66.49;99801.81;4977206;28;20041;-96
2023/09/02 05:23:31;;;;;;;6.45;4.07;;;;;;;18.19;66.42;99822.91;4979638;28;20102;-96
2023/09/02 05:26:21;;;;;;;6.28;3.50;;;;;;;18.12;66.28;99792.56;4978526;28;20069;-96
2023/09/02 05:28:56;;;;;;;6.95;3.33;;;;;;;18.18;66.64;99807.66;4979448;28;20296;-96
2023/09/02 05:31:29;;;;;;;6.95;3.95;;;;;;;18.30;66.87;99818.00;4982341;28;20035;-96
2023/09/02 05:34:08;;;;;;;5.55;3.88;;;;;;;18.22;66.53;99808.66;4981774;28;20046;-96
2023/09/02 05:36:38;;;;;;;8.18;3.65;;;;;;;18.29;66.62;99806.31;4976930;28;20030;-96
2023/09/02 05:39:10;;;;;;;5.20;3.45;;;;;;;18.43;65.18;99816.31;4975843;28;20098;-96
2023/09/02 05:41:39;;;;;;;;;;;;;;;18.46;64.31;99827.44;4977276;28;20066;-96
2023/09/02 05:44:17;;;;;;;5.55;3.35;;;;;;;18.26;64.98;99808.84;4996718;28;19910;-96
2023/09/02 05:47:06;;;;;;;5.75;3.03;;;;;;;18.28;65.16;99812.06;4983021;28;20058;-95
2023/09/02 05:50:10;;;;;;;;;;;;;;;;;;;;;
2023/09/02 05:52:43;;;;;;;5.53;3.40;;;;;;;18.48;64.87;99824.41;4863227;29;20046;-96
2023/09/02 05:55:17;;;;;;;5.72;3.47;;;;;;;18.52;64.08;99809.84;4923612;29;20541;-96
2023/09/02 05:57:56;;;;;;;;;;;;;;;;;;;;;
2023/09/02 06:00:24;;;;;;;5.95;3.13;;;;;;;18.72;63.37;99805.00;4907543;29;20051;-96
2023/09/02 06:05:46;;;;;;;7.60;3.97;;;;;;;19.00;62.28;99813.81;4895061;29;20073;-95
2023/09/02 06:08:12;;;;;;;6.72;3.40;;;;;;;19.21;61.92;99840.56;4872091;29;20499;-96
2023/09/02 06:10:38;;;;;;;4.90;3.35;;;;;;;19.28;61.17;99830.81;4873575;29;20597;-96
2023/09/02 06:13:24;;;;;;;4.35;3.58;;;;;;;19.34;61.25;99832.28;4875234;29;20033;-96
2023/09/02 06:15:59;;;;;;;5.43;3.40;;;;;;;19.45;60.15;99830.06;4888267;29;20047;-96
2023/09/02 06:18:28;;;;;;;9.15;3.92;;;;;;;19.59;60.00;99832.69;4896206;29;20039;-96
2023/09/02 06:20:58;;;;;;;5.47;3.40;;;;;;;19.85;59.89;99837.44;4893279;29;20148;-96
2023/09/02 06:23:29;;;;;;;4.85;3.60;;;;;;;19.96;59.73;99838.72;4894121;29;20541;-96
2023/09/02 06:26:02;;;;;;;4.53;3.28;;;;;;;20.07;59.08;99845.50;4910302;29;20035;-96
2023/09/02 06:28:47;;;;;;;10.00;3.55;;;;;;;20.33;58.89;99861.09;4898017;29;20059;-96
2023/09/02 06:31:12;;;;;;;5.72;3.33;;;;;;;20.48;58.41;99846.97;4925844;28;20046;-96
2023/09/02 06:33:41;;;;;;;4.53;3.20;;;;;;;20.56;57.82;99840.66;4963966;28;20043;-96
2023/09/02 06:36:19;;;;;;;3.67;3.10;;;;;;;20.83;57.19;99855.13;4971211;28;20034;-96
2023/09/02 06:41:29;;;;;;;5.18;3.47;;;;;;;20.92;56.19;99850.44;5677096;23;20043;-96
2023/09/02 06:44:02;;;;;;;4.32;3.45;;;;;;;21.32;54.64;99865.78;4968683;29;20035;-96
2023/09/02 06:46:33;;;;;;;4.47;3.38;;;;;;;21.49;54.04;99862.19;4945737;29;20066;-96
2023/09/02 06:49:16;;;;;;;7.18;3.75;;;;;;;21.52;53.55;99847.81;4951382;29;20477;-96
2023/09/02 06:51:44;;;;;;;7.65;3.42;;;;;;;21.55;53.83;99839.75;4964001;29;20071;-96
2023/09/02 06:54:16;;;;;;;5.53;3.65;;;;;;;21.52;53.56;99845.09;4953216;29;20044;-96
2023/09/02 06:56:44;;;;;;;6.18;3.72;;;;;;;21.54;54.34;99848.28;4951018;29;20050;-96
2023/09/02 06:59:19;;;;;;;6.80;3.55;;;;;;;21.56;53.41;99838.63;4950062;29;20067;-96
2023/09/02 07:05:22;;;;;;;6.65;3.08;;;;;;;22.15;52.03;99862.44;4958712;28;20058;-96
2023/09/02 07:07:47;;;;;;;4.50;2.83;;;;;;;22.28;51.18;99846.06;4949233;28;20100;-96
2023/09/02 07:10:17;;;;;;;6.70;3.50;;;;;;;22.39;51.93;99844.50;4969535;29;20047;-96
2023/09/02 07:12:53;;;;;;;;;;;;;;;;;;;;;
2023/09/02 07:15:39;;;;;;;4.85;3.33;;;;;;;22.58;51.57;99839.34;4968845;29;20095;-96
2023/09/02 07:18:45;;;;;;;3.58;2.72;;;;;;;22.58;50.92;99838.56;4969202;29;20035;-96
2023/09/02 07:21:31;;;;;;;;;;;;;;;;;;;;;
2023/09/02 07:24:10;;;;;;;7.40;3.05;;;;;;;22.99;50.05;99840.38;4955556;29;20070;-96
2023/09/02 07:26:45;;;;;;;5.30;3.05;;;;;;;23.37;49.60;99863.25;4958217;29;20054;-96
2023/09/02 07:29:57;;;;;;;7.25;3.05;;;;;;;23.26;50.09;99832.66;4951992;29;20067;-96
2023/09/02 07:32:35;;;;;;;9.02;4.95;;;;;;;23.37;49.96;99844.81;4952211;29;20067;-96
2023/09/02 07:35:18;;;;;;;7.47;3.70;;;;;;;23.58;49.25;99843.88;4965733;28;20045;-96
2023/09/02 07:37:46;;;;;;;5.57;2.78;;;;;;;23.77;48.11;99837.84;4965136;28;20119;-96
2023/09/02 07:40:12;;;;;;;5.47;3.00;;;;;;;23.62;48.68;99842.06;4982226;28;20035;-96
2023/09/02 07:42:45;;;;;;;7.60;3.03;;;;;;;23.75;49.20;99831.84;4966617;28;20099;-96
2023/09/02 07:45:35;;;;;;;6.03;3.00;;;;;;;23.85;48.31;99833.34;4951040;28;20062;-96
2023/09/02 07:50:54;;;;;;;5.60;2.65;;;;;;;24.38;46.45;99842.38;4969358;28;20054;-96
2023/09/02 07:53:34;;;;;;;;;;;;;;;;;;;;;
2023/09/02 07:56:08;;;;;;;5.55;2.53;;;;;;;24.61;46.78;99839.88;4988026;28;20129;-96
2023/09/02 07:58:53;;;;;;;;;;;;;;;;;;;;;
2023/09/02 08:01:37;;;;;;;;;;;;;;;;;;;;;
2023/09/02 08:05:14;;;;;;;6.95;3.10;;;;;;;25.10;46.02;99845.13;4964298;29;20055;-95
2023/09/02 08:08:01;;;;;;;4.72;2.83;;;;;;;25.09;45.44;99828.94;4944830;29;20032;-96
2023/09/02 08:11:39;;;;;;;5.57;2.65;;;;;;;25.19;44.19;99822.88;4923062;29;20024;-96
2023/09/02 08:15:09;;;;;;;6.05;2.65;;;;;;;25.34;43.45;99819.38;4898998;29;20045;-96
2023/09/02 08:18:06;;;;;;;4.22;2.60;;;;;;;25.26;44.50;99828.63;4931232;29;20032;-96
2023/09/02 08:20:36;;;;;;;3.88;2.72;;;;;;;25.40;43.84;99826.22;4916552;29;20039;-96
2023/09/02 08:28:49;;;;;;;4.53;2.80;;;;;;;25.76;42.93;99845.56;5087649;23;20071;-96
2023/09/02 08:31:36;;;;;;;3.00;2.50;;;;;;;25.12;44.24;99828.25;4937069;29;20461;-96
2023/09/02 08:34:17;;;;;;;4.55;2.45;;;;;;;25.50;43.57;99819.34;4928362;28;20035;-95
2023/09/02 08:36:47;;;;;;;4.78;2.83;;;;;;;25.68;43.95;99827.25;4968830;29;20019;-96
2023/09/02 08:39:15;;;;;;;5.60;2.85;;;;;;;25.82;43.63;99822.03;4952053;29;20102;-96
2023/09/02 08:41:44;;;;;;;6.10;2.75;;;;;;;26.13;43.45;99843.25;4951119;29;20098;-96
2023/09/02 08:44:10;;;;;;;4.15;2.30;;;;;;;26.12;43.44;99833.34;4947046;29;20051;-96
2023/09/02 08:46:40;;;;;;;3.33;2.20;;;;;;;26.19;42.39;99841.78;4948865;29;20474;-95
2023/09/02 08:49:09;;;;;;;3.30;2.50;;;;;;;26.23;41.92;99830.84;4946235;29;20051;-95
2023/09/02 08:51:39;;;;;;;5.25;2.50;;;;;;;26.05;42.39;99835.97;4950922;29;20047;-96
2023/09/02 08:57:24;;;;;;;3.97;2.60;;;;;;;26.25;42.03;99827.69;4955209;29;20035;-96
2023/09/02 08:59:51;;;;;;;3.92;2.50;;;;;;;26.26;41.80;99827.34;4968605;29;20395;-96
2023/09/02 09:02:20;;;;;;;3.47;2.70;;;;;;;26.32;41.29;99816.81;4949177;29;20394;-95
2023/09/02 09:05:02;;;;;;;2.95;2.47;;;;;;;26.37;40.69;99822.03;4955005;28;20015;-96
2023/09/02 09:07:27;;;;;;;;;;;;;;;26.62;40.44;99836.34;4963706;29;20046;-96
2023/09/02 09:09:55;;;;;;;4.60;2.92;;;;;;;26.62;40.76;99819.78;4947519;29;19914;-96
2023/09/02 09:12:21;;;;;;;4.38;3.00;;;;;;;26.64;41.66;99822.97;4948561;29;20039;-95
2023/09/02 09:14:47;;;;;;;6.18;3.70;;;;;;;26.77;41.39;99821.66;4963079;29;20043;-96
2023/09/02 09:17:17;;;;;;;14.75;3.72;;;;;;;26.88;40.87;99821.84;4950534;29;20497;-96
2023/09/02 09:19:45;;;;;;;4.15;3.13;;;;;;;26.96;40.03;99811.72;4961471;29;20098;-96
2023/09/02 09:22:25;;;;;;;7.15;2.85;;;;;;;27.16;39.56;99827.03;4947300;29;20502;-96
2023/09/02 09:24:51;;;;;;;3.17;2.67;;;;;;;27.18;40.30;99824.69;4959980;29;20039;-96
2023/09/02 09:27:24;;;;;;;3.20;2.47;;;;;;;27.16;39.47;99813.22;4945780;29;20050;-96
2023/09/02 09:29:50;;;;;;;4.03;2.50;;;;;;;26.90;39.33;99807.66;4945355;29;20028;-95
2023/09/02 09:32:23;;;;;;;3.15;2.58;;;;;;;27.10;39.39;99795.38;4946057;29;20042;-96
2023/09/02 09:35:11;;;;;;;3.53;2.55;;;;;;;27.11;38.23;99805.25;4970270;29;20035;-96
2023/09/02 09:38:17;;;;;;;4.07;2.75;;;;;;;27.17;39.13;99791.91;4961400;28;20016;-96
2023/09/02 09:41:08;;;;;;;5.60;2.92;;;;;;;27.30;38.75;99801.63;4903663;29;20039;-96
2023/09/02 09:47:26;;;;;;;5.80;2.30;;;;;;;27.35;39.02;99800.50;4919004;29;20079;-96
2023/09/02 09:50:12;;;;;;;3.95;2.38;;;;;;;27.30;38.68;99789.78;4954231;29;20051;-96
2023/09/02 09:53:20;;;;;;;6.78;2.50;;;;;;;27.41;38.30;99805.38;4986613;28;20035;-96
2023/09/02 09:56:01;;;;;;;6.82;2.42;;;;;;;27.57;37.66;99801.63;4975426;28;20045;-96
2023/09/02 09:58:41;;;;;;;5.43;2.50;;;;;;;27.60;37.50;99795.34;4951703;28;20032;-94
2023/09/02 10:01:38;;;;;;;3.40;2.53;;;;;;;27.65;36.67;99783.19;4938892;29;20035;-96
2023/09/02 10:07:28;;;;;;;4.00;2.28;;;;;;;27.77;36.33;99794.03;4893860;29;20032;-96
2023/09/02 10:15:24;;;;;;;3.80;2.40;;;;;;;27.97;36.68;99772.56;4948355;26;20047;-95
2023/09/02 10:18:01;;;;;;;3.72;2.50;;;;;;;28.12;36.32;99779.06;4951859;29;20024;-96
2023/09/02 10:20:51;;;;;;;3.60;2.38;;;;;;;28.10;36.00;99767.56;4970248;29;20497;-96
2023/09/02 10:23:30;;;;;;;5.45;2.15;;;;;;;28.06;35.89;99763.94;4936451;29;20054;-96
2023/09/02 10:26:45;;;;;;;3.15;2.63;;;;;;;28.22;36.20;99761.75;4899701;29;20481;-96
2023/09/02 10:29:47;;;;;;;;;;;;;;;;;;;;;
2023/09/02 10:32:13;;;;;;;4.07;2.75;;;;;;;28.56;35.24;99764.53;4877314;29;20080;-96
2023/09/02 10:40:38;;;;;;;2.60;1.90;;;;;;;28.81;34.13;99773.09;5177899;23;20043;-96
2023/09/02 10:43:09;;;;;;;3.03;1.75;;;;;;;28.84;34.27;99758.47;4969047;28;20023;-96
2023/09/02 10:45:45;;;;;;;;;;;;;;;;;;;;;
2023/09/02 10:48:11;;;;;;;3.25;2.08;;;;;;;29.05;33.69;99782.78;4970418;29;20106;-96
2023/09/02 10:50:40;;;;;;;3.55;2.08;;;;;;;28.73;32.82;99761.13;4953800;29;20102;-96
2023/09/02 10:53:06;;;;;;;4.80;2.33;;;;;;;28.78;33.27;99768.31;4971191;29;20031;-96
2023/09/02 10:55:32;;;;;;;2.40;1.98;;;;;;;28.81;33.79;99764.78;4953634;29;20035;-96
2023/09/02 10:58:02;;;;;;;2.97;1.85;;;;;;;28.87;33.84;99776.31;4950796;29;20103;-96
2023/09/02 11:01:22;;;;;;;;;;;;;;;;;;;;;
2023/09/02 11:03:51;;;;;;;3.78;2.10;;;;;;;28.74;32.48;99765.53;4977927;28;20043;-96
2023/09/02 11:08:58;;;;;;;2.70;2.10;;;;;;;28.58;32.28;99754.66;5075877;23;20078;-95
2023/09/02 11:11:24;;;;;;;5.40;2.20;;;;;;;28.58;32.61;99759.44;4970007;29;20047;-96
2023/09/02 11:14:19;;;;;;;3.42;2.10;;;;;;;28.68;32.62;99769.00;4989338;28;20059;-96
2023/09/02 11:29:44;;;;;;;2.90;2.10;;;;;;;28.79;30.81;99754.06;5267436;23;20035;-96
2023/09/02 11:32:09;;;;;;;2.97;2.28;;;;;;;28.80;30.62;99747.38;4969263;28;20125;-96
2023/09/02 11:34:36;;;;;;;2.28;1.90;;;;;;;28.87;31.03;99740.28;4952099;28;20054;-96
2023/09/02 11:37:11;;;;;;;4.07;2.13;;;;;;;28.75;31.11;99721.97;4955404;28;20063;-96
2023/09/02 11:42:30;;;;;;;2.55;2.00;;;;;;;28.89;29.49;99740.66;4978027;28;20073;-96
2023/09/02 11:54:15;;;;;;;4.63;2.28;;;;;;;29.00;29.81;99697.22;5195699;23;20280;-96
2023/09/02 11:57:00;;;;;;;4.70;2.20;;;;;;;29.14;29.88;99716.75;4932090;29;20040;-96
2023/09/02 11:59:38;;;;;;;;;;;;;;;;;;;;;
2023/09/02 12:02:16;;;;;;;2.97;2.33;;;;;;;29.24;27.56;99700.53;4949208;29;20110;-96
2023/09/02 12:04:44;;;;;;;3.58;2.80;;;;;;;29.22;27.69;99695.41;4927162;29;20036;-96
2023/09/02 12:07:10;;;;;;;3.10;2.00;;;;;;;29.24;27.73;99687.50;4947102;29;20028;-96
2023/09/02 12:09:38;;;;;;;3.83;1.92;;;;;;;29.36;27.49;99703.00;4929553;29;20063;-96
2023/09/02 12:12:10;;;;;;;2.88;2.30;;;;;;;29.37;27.82;99685.19;4929897;29;20039;-96
2023/09/02 12:14:42;;;;;;;3.80;2.40;;;;;;;29.39;27.94;99682.81;4929546;29;20488;-96
2023/09/02 12:17:18;;;;;;;3.53;2.50;;;;;;;29.48;27.57;99683.25;4931878;29;20066;-96
2023/09/02 12:19:47;;;;;;;5.97;2.58;;;;;;;29.48;28.12;99676.91;4928576;29;20035;-95
2023/09/02 12:22:12;;;;;;;4.30;2.13;;;;;;;29.40;28.08;99676.06;4928654;29;20035;-95
2023/09/02 12:24:38;;;;;;;3.67;2.08;;;;;;;29.36;27.82;99659.41;4926830;29;20095;-95
2023/09/02 12:27:09;;;;;;;4.45;2.35;;;;;;;29.33;28.47;99676.03;4944260;29;20497;-96
2023/09/02 12:29:34;;;;;;;6.50;4.55;;;;;;;29.41;28.92;99669.34;4928110;29;20072;-96
2023/09/02 12:32:02;;;;;;;4.38;2.83;;;;;;;29.48;27.92;99669.38;4929217;29;20031;-96
2023/09/02 12:35:07;;;;;;;2.88;2.17;;;;;;;29.53;27.99;99657.91;4932493;29;20039;-96
2023/09/02 12:37:33;;;;;;;2.83;1.98;;;;;;;29.61;27.73;99667.03;4894620;29;20040;-96
2023/09/02 12:40:42;;;;;;;4.38;2.75;;;;;;;29.67;27.41;99673.81;4893020;29;20047;-96
2023/09/02 12:43:30;;;;;;;3.70;2.00;;;;;;;29.66;26.69;99660.34;4868665;29;20191;-96
2023/09/02 12:45:56;;;;;;;3.80;1.85;;;;;;;29.70;25.75;99663.94;4857085;29;20500;-96
2023/09/02 12:48:30;;;;;;;2.70;2.28;;;;;;;29.60;24.96;99655.16;4855204;29;20040;-96
2023/09/02 12:51:27;;;;;;;3.38;2.67;;;;;;;29.76;25.49;99684.56;4843414;29;20033;-96
2023/09/02 12:53:59;;;;;;;3.20;2.28;;;;;;;29.76;25.40;99673.47;4844996;29;20086;-96
2023/09/02 12:56:30;;;;;;;2.80;2.28;;;;;;;29.60;26.14;99671.81;4843744;29;20041;-96
2023/09/02 12:58:58;;;;;;;3.83;2.05;;;;;;;29.62;25.95;99652.00;4841105;29;20548;-96
2023/09/02 13:01:32;;;;;;;5.50;2.53;;;;;;;29.73;26.24;99655.63;4844475;29;20084;-96
2023/09/02 13:04:46;;;;;;;3.15;2.38;;;;;;;29.86;26.19;99667.16;4859022;29;20036;-96
2023/09/02 13:07:08;;;;;;;4.70;2.30;;;;;;;29.89;25.63;99662.81;4896746;29;20065;-96
2023/09/02 13:09:34;;;;;;;5.43;2.05;;;;;;;29.76;25.81;99665.13;4891680;29;20037;-96
2023/09/02 13:12:01;;;;;;;3.97;2.40;;;;;;;29.81;26.36;99662.78;4887210;29;20108;-96
2023/09/02 13:14:27;;;;;;;3.40;2.60;;;;;;;29.80;26.30;99657.63;4884121;29;20043;-96
2023/09/02 13:17:05;;;;;;;3.97;2.50;;;;;;;29.79;26.69;99644.94;4925913;29;20019;-95
2023/09/02 13:19:34;;;;;;;4.95;2.85;;;;;;;29.89;26.15;99638.63;4927238;29;20146;-96
2023/09/02 13:22:02;;;;;;;3.30;2.33;;;;;;;29.81;26.40;99634.25;4926658;29;20036;-96
2023/09/02 13:24:39;;;;;;;3.83;2.75;;;;;;;29.89;26.03;99641.41;4927940;29;20127;-96